Terminal Aerodrome Forecast
Issued by NWS

Current Version | Previous Version | Text Only | Print | Product List | Glossary On
Versions: 1 2 3 4 5 6 7 8 9 10 11 12 13 14 15 16 17 18 19 20
000
FTUS44 KCRP 252140 AAA
TAFLRD
TAF AMD
KLRD 252140Z 2522/2618 13013G18KT P6SM BKN050 OVC150
      TEMPO 2600/2604 VRB20G35KT 2SM +TSRA BR OVC015CB
     FM260400 15011KT 6SM -TSRA SCT025CB OVC080
     FM260900 16007KT P6SM BKN015 OVC100
     FM261600 16013KT P6SM BKN035 OVC150=

USA.gov is the U.S. government's official web portal to all federal, state and local government web resources and services.